Troy Municipal Airport
KTOI : rendu visible

Aérodrome :











RETROUVEZ-NOUS SUR...

 
LOGIN :

S'inscrire | Disclaimer

   EN    FR    IT 

 









Légende :    VFR   VFR Marginal   IFR   IFR Intensif   IFR Très Intensif
Visi : 
Plafond : 
>= 8 km
>= 3000ft
5 à 8 km
1000 à 3000 ft
1500m à 5 km
500 à 1000 ft
800 à 1500m
200 à 500 ft
< 800m
< 200 ft
Symboles :   Orages  Brouillard  Fortes neiges  Fortes précipitations  Vent > 20 kt






- Altitude de l'aérodrome : 398 ft


KTOI - Troy Municipal

DERNIER METAR :
  • 210048Z AUTO 02013KT 5SM BR OVC009 06/05 A3024 RMK AO2 RAB37E45 CIG 006V013 P0000

METARs EXPIRÉS :
  • 210005Z AUTO 02013G20KT 10SM OVC010 06/05 A3022 RMK AO2 T00610050
  • 202353Z AUTO 02013G20KT 10SM OVC009 07/05 A3021 RMK AO2 RAE38 CIG 007V012 SLP230 P0002 60068 T00670050 10100 20067 53028
  • 202301Z AUTO 02012KT 9SM -RA BKN008 OVC060 08/07 A3017 RMK AO2 P0001 T00780067
  • 202210Z AUTO 04009G20KT 10SM -RA SCT012 SCT017 OVC038 09/07 A3014 RMK AO2 P0000 T00890072

TAF KTOI
Valide du 21 à 00h jusqu'au 22 à 00h UTC


202339Z 2100/2124 01012KT 6SM BR OVC008
TEMPO 2100/2102 2SM -RA BKN008
FM210400 36013KT P6SM OVC012
FM210800 36011KT P6SM BKN015
FM211200 36009KT P6SM BKN025
FM211500 01009KT P6SM SCT050 BKN150



MET'MAP, la Météo Aéronautique d'un coup d'oeil ! - Copyright ORBIFLY Décembre 2007 - Disclaimer

ORBIFLY MET'MAP TEAM :

Programmation & Développement : Alexandra Zaïnal
Sur une idée originale de : Baudouin d'Aumeries
Assistance à la programmation : Marc-Olivier Méhu
Soutien technique & logistique : Manuel Goepfert

Contact : metmap@orbifly.com




SOURCES & CREDITS :

   NOAA       Earth
Advisory